createdAt,value
2023-05-22T00:00:07.077Z,43.32
2023-05-22T00:01:06.122Z,43.30
2023-05-22T00:02:06.328Z,43.33
2023-05-22T00:03:06.322Z,43.34
2023-05-22T00:04:06.457Z,43.36
2023-05-22T00:05:06.622Z,43.34
2023-05-22T00:06:07.354Z,43.34
2023-05-22T00:07:06.462Z,43.33
2023-05-22T00:08:06.452Z,43.34
2023-05-22T00:09:07.669Z,43.30
2023-05-22T00:10:06.681Z,43.32
2023-05-22T00:11:06.680Z,43.31
2023-05-22T00:12:06.622Z,43.32
2023-05-22T00:13:06.878Z,43.31
2023-05-22T00:14:06.719Z,43.35
2023-05-22T00:15:06.935Z,43.32
2023-05-22T00:16:06.819Z,43.31
2023-05-22T00:17:06.949Z,43.31
2023-05-22T00:18:07.098Z,43.32
2023-05-22T00:19:08.001Z,43.34
2023-05-22T00:20:08.055Z,43.32
2023-05-22T00:21:07.138Z,43.29
2023-05-22T00:22:08.153Z,43.28
2023-05-22T00:23:08.185Z,43.30
2023-05-22T00:24:08.346Z,43.31
2023-05-22T00:25:07.293Z,43.29
2023-05-22T00:26:08.310Z,43.32
2023-05-22T00:27:07.507Z,43.32
2023-05-22T00:28:07.353Z,43.31
2023-05-22T00:29:07.466Z,43.29
2023-05-22T00:30:07.512Z,43.30
2023-05-22T00:31:07.464Z,43.27
2023-05-22T00:32:07.650Z,43.29
2023-05-22T00:33:08.772Z,43.30
2023-05-22T00:34:07.761Z,43.29
2023-05-22T00:35:07.889Z,43.30
2023-05-22T00:36:08.955Z,43.28
2023-05-22T00:37:08.984Z,43.29
2023-05-22T00:38:07.765Z,43.28
2023-05-22T00:39:09.080Z,43.28
2023-05-22T00:40:09.079Z,43.30
2023-05-22T00:41:08.138Z,43.28
2023-05-22T00:42:07.935Z,43.27
2023-05-22T00:43:09.095Z,43.30
2023-05-22T00:44:08.057Z,43.27
2023-05-22T00:45:09.089Z,43.29
2023-05-22T00:46:08.286Z,43.27
2023-05-22T00:47:08.187Z,43.25
2023-05-22T00:48:08.259Z,43.28
2023-05-22T00:49:08.334Z,43.26
2023-05-22T00:50:08.270Z,43.28
2023-05-22T00:51:08.348Z,43.27
2023-05-22T00:52:08.420Z,43.28
2023-05-22T00:53:08.440Z,43.27
2023-05-22T00:54:09.593Z,43.26
2023-05-22T00:55:09.527Z,43.24
2023-05-22T00:56:08.713Z,43.27
2023-05-22T00:57:08.650Z,43.27
2023-05-22T00:58:08.902Z,43.27
2023-05-22T00:59:08.737Z,43.26
2023-05-22T01:00:09.795Z,43.25
2023-05-22T01:01:08.935Z,43.23
2023-05-22T01:02:09.994Z,43.27
2023-05-22T01:03:08.985Z,43.29
2023-05-22T01:04:10.189Z,43.29
2023-05-22T01:05:09.114Z,43.27
2023-05-22T01:06:09.168Z,43.25
2023-05-22T01:07:09.162Z,43.25
2023-05-22T01:08:10.357Z,43.26
2023-05-22T01:09:10.433Z,43.26
2023-05-22T01:10:09.420Z,43.25
2023-05-22T01:11:10.480Z,43.24
2023-05-22T01:12:09.554Z,43.24
2023-05-22T01:13:10.410Z,43.25
2023-05-22T01:14:10.406Z,43.25
2023-05-22T01:15:09.470Z,43.25
2023-05-22T01:16:09.577Z,43.24
2023-05-22T01:17:09.597Z,43.25
2023-05-22T01:18:09.939Z,43.26
2023-05-22T01:19:10.940Z,43.24
2023-05-22T01:20:09.857Z,43.23
2023-05-22T01:21:09.910Z,43.23
2023-05-22T01:22:09.971Z,43.25
2023-05-22T01:23:11.052Z,43.22
2023-05-22T01:24:10.048Z,43.24
2023-05-22T01:25:09.995Z,43.23
2023-05-22T01:26:10.055Z,43.25
2023-05-22T01:27:10.204Z,43.24
2023-05-22T01:28:10.273Z,43.21
2023-05-22T01:29:10.307Z,43.23
2023-05-22T01:30:11.356Z,43.24
2023-05-22T01:31:10.448Z,43.26
2023-05-22T01:32:11.357Z,43.22
2023-05-22T01:33:10.589Z,43.25
2023-05-22T01:34:11.628Z,43.21
2023-05-22T01:35:10.683Z,43.21
2023-05-22T01:36:11.529Z,43.23
2023-05-22T01:37:11.822Z,43.22
2023-05-22T01:38:11.701Z,43.24
2023-05-22T01:39:11.775Z,43.23
2023-05-22T01:40:10.833Z,43.23
2023-05-22T01:41:10.755Z,43.23
2023-05-22T01:42:10.803Z,43.24
2023-05-22T01:43:11.976Z,43.23
2023-05-22T01:44:11.215Z,43.20
2023-05-22T01:45:10.900Z,43.20
2023-05-22T01:46:12.134Z,43.23
2023-05-22T01:47:11.017Z,43.21
2023-05-22T01:48:11.170Z,43.22
2023-05-22T01:49:11.368Z,43.20
2023-05-22T01:50:11.330Z,43.22
2023-05-22T01:51:11.205Z,43.20
2023-05-22T01:52:11.303Z,43.18
2023-05-22T01:53:12.543Z,43.20
2023-05-22T01:54:11.328Z,43.20
2023-05-22T01:55:11.376Z,43.20
2023-05-22T01:56:12.091Z,43.23
2023-05-22T01:57:12.537Z,43.21
2023-05-22T01:58:12.565Z,43.19
2023-05-22T01:59:11.656Z,43.20
2023-05-22T02:00:11.731Z,43.19
2023-05-22T02:01:11.801Z,43.19
2023-05-22T02:02:12.751Z,43.18
2023-05-22T02:03:12.001Z,43.19
2023-05-22T02:04:11.785Z,43.23
2023-05-22T02:05:12.822Z,43.19
2023-05-22T02:06:11.851Z,43.21
2023-05-22T02:07:12.868Z,43.21
2023-05-22T02:08:11.898Z,43.18
2023-05-22T02:09:12.953Z,43.20
2023-05-22T02:10:12.950Z,43.20
2023-05-22T02:11:11.998Z,43.20
2023-05-22T02:12:12.010Z,43.19
2023-05-22T02:13:13.047Z,43.20
2023-05-22T02:14:12.087Z,43.18
2023-05-22T02:15:13.067Z,43.19
2023-05-22T02:16:12.212Z,43.19
2023-05-22T02:17:13.114Z,43.18
2023-05-22T02:18:13.224Z,43.19
2023-05-22T02:19:13.201Z,43.18
2023-05-22T02:20:13.191Z,43.18
2023-05-22T02:21:13.248Z,43.18
2023-05-22T02:22:12.267Z,43.20
2023-05-22T02:23:13.314Z,43.16
2023-05-22T02:24:13.329Z,43.18
2023-05-22T02:25:13.333Z,43.19
2023-05-22T02:26:13.358Z,43.18
2023-05-22T02:27:12.377Z,43.16
2023-05-22T02:28:13.394Z,43.21
2023-05-22T02:29:12.417Z,43.17
2023-05-22T02:30:12.509Z,43.18
2023-05-22T02:31:13.500Z,43.18
2023-05-22T02:32:12.510Z,43.16
2023-05-22T02:33:13.523Z,43.18
2023-05-22T02:34:12.541Z,43.17
2023-05-22T02:35:13.596Z,43.16
2023-05-22T02:36:12.625Z,43.16
2023-05-22T02:37:12.650Z,43.16
2023-05-22T02:38:12.663Z,43.17
2023-05-22T02:39:12.669Z,43.15
2023-05-22T02:40:13.673Z,43.16
2023-05-22T02:41:12.685Z,43.16
2023-05-22T02:42:13.694Z,43.14
2023-05-22T02:43:12.721Z,43.14
2023-05-22T02:44:12.726Z,43.14
2023-05-22T02:45:12.739Z,43.16
2023-05-22T02:46:13.828Z,43.13
2023-05-22T02:47:13.743Z,43.14
2023-05-22T02:48:13.855Z,43.13
2023-05-22T02:49:12.812Z,43.13
2023-05-22T02:50:12.815Z,43.14
2023-05-22T02:51:13.810Z,43.15
2023-05-22T02:52:12.814Z,43.13
2023-05-22T02:53:13.807Z,43.13
2023-05-22T02:54:12.823Z,43.14
2023-05-22T02:55:12.833Z,43.16
2023-05-22T02:56:12.835Z,43.14
2023-05-22T02:57:13.820Z,43.12
2023-05-22T02:58:13.852Z,43.12
2023-05-22T02:59:12.839Z,43.13
2023-05-22T03:00:13.899Z,43.12
2023-05-22T03:01:13.838Z,43.15
2023-05-22T03:02:13.834Z,43.11
2023-05-22T03:03:13.941Z,43.14
2023-05-22T03:04:14.005Z,43.13
2023-05-22T03:05:13.847Z,43.10
2023-05-22T03:06:13.840Z,43.11
2023-05-22T03:07:12.845Z,43.10
2023-05-22T03:08:13.845Z,43.11
2023-05-22T03:09:13.816Z,43.12
2023-05-22T03:10:13.820Z,43.11
2023-05-22T03:11:13.809Z,43.12
2023-05-22T03:12:12.820Z,43.14
2023-05-22T03:13:13.815Z,43.10
2023-05-22T03:14:13.823Z,43.12
2023-05-22T03:15:13.833Z,43.12
2023-05-22T03:16:12.880Z,43.12
2023-05-22T03:17:12.831Z,43.11
2023-05-22T03:18:13.827Z,43.14
2023-05-22T03:19:12.942Z,43.10
2023-05-22T03:20:12.867Z,43.11
2023-05-22T03:21:13.837Z,43.11
2023-05-22T03:22:13.859Z,43.11
2023-05-22T03:23:13.841Z,43.14
2023-05-22T03:24:12.838Z,43.11
2023-05-22T03:25:13.875Z,43.09
2023-05-22T03:26:12.836Z,43.12
2023-05-22T03:27:13.838Z,43.09
2023-05-22T03:28:13.832Z,43.10
2023-05-22T03:29:13.846Z,43.09
2023-05-22T03:30:12.836Z,43.10
2023-05-22T03:31:12.821Z,43.10
2023-05-22T03:32:12.829Z,43.06
2023-05-22T03:33:12.865Z,43.10
2023-05-22T03:34:13.811Z,43.09
2023-05-22T03:35:12.820Z,43.07
2023-05-22T03:36:12.836Z,43.08
2023-05-22T03:37:13.805Z,43.08
2023-05-22T03:38:13.805Z,43.08
2023-05-22T03:39:12.791Z,43.10
2023-05-22T03:40:13.850Z,43.09
2023-05-22T03:41:13.789Z,43.10
2023-05-22T03:42:12.789Z,43.08
2023-05-22T03:43:13.794Z,43.08
2023-05-22T03:44:12.781Z,43.06
2023-05-22T03:45:12.786Z,43.04
2023-05-22T03:46:13.833Z,43.05
2023-05-22T03:47:13.767Z,43.07
2023-05-22T03:48:12.771Z,43.06
2023-05-22T03:49:13.776Z,43.07
2023-05-22T03:50:13.779Z,43.04
2023-05-22T03:51:13.762Z,43.06
2023-05-22T03:52:12.798Z,43.05
2023-05-22T03:53:13.753Z,43.03
2023-05-22T03:54:13.772Z,43.05
2023-05-22T03:55:12.800Z,43.05
2023-05-22T03:56:12.767Z,43.04
2023-05-22T03:57:12.756Z,43.07
2023-05-22T03:58:13.773Z,43.06
2023-05-22T03:59:12.762Z,43.02
2023-05-22T04:00:12.746Z,43.02
2023-05-22T04:01:12.764Z,43.06
2023-05-22T04:02:12.813Z,43.03
2023-05-22T04:03:13.953Z,43.03
2023-05-22T04:04:12.755Z,43.05
2023-05-22T04:05:13.834Z,43.03
2023-05-22T04:06:13.851Z,43.04
2023-05-22T04:07:13.728Z,43.04
2023-05-22T04:08:13.743Z,43.04
2023-05-22T04:09:13.741Z,43.04
2023-05-22T04:10:13.745Z,43.02
2023-05-22T04:11:13.720Z,43.03
2023-05-22T04:12:12.728Z,43.03
2023-05-22T04:13:13.701Z,43.01
2023-05-22T04:14:13.695Z,43.04
2023-05-22T04:15:12.684Z,43.02
2023-05-22T04:16:13.796Z,43.00
2023-05-22T04:17:12.697Z,42.99
2023-05-22T04:18:12.716Z,43.02
2023-05-22T04:19:13.615Z,43.03
2023-05-22T04:20:12.718Z,43.02
2023-05-22T04:21:13.682Z,43.01
2023-05-22T04:22:12.663Z,43.00
2023-05-22T04:23:12.665Z,43.00
2023-05-22T04:24:13.700Z,42.99
2023-05-22T04:25:13.653Z,43.00
2023-05-22T04:26:12.642Z,42.98
2023-05-22T04:27:12.645Z,42.99
2023-05-22T04:28:13.651Z,42.99
2023-05-22T04:29:12.630Z,42.97
2023-05-22T04:30:12.642Z,42.99
2023-05-22T04:31:13.685Z,42.98
2023-05-22T04:32:12.635Z,42.98
2023-05-22T04:33:13.727Z,42.97
2023-05-22T04:34:12.612Z,42.97
2023-05-22T04:35:12.610Z,42.98
2023-05-22T04:36:12.757Z,42.98
2023-05-22T04:37:12.607Z,42.96
2023-05-22T04:38:12.593Z,42.98
2023-05-22T04:39:12.598Z,42.98
2023-05-22T04:40:13.608Z,42.98
2023-05-22T04:41:12.587Z,42.94
2023-05-22T04:42:12.580Z,42.97
2023-05-22T04:43:13.594Z,42.94
2023-05-22T04:44:13.569Z,42.95
2023-05-22T04:45:13.576Z,42.96
2023-05-22T04:46:12.620Z,42.96
2023-05-22T04:47:13.611Z,42.92
2023-05-22T04:48:12.567Z,42.95
2023-05-22T04:49:13.573Z,42.96
2023-05-22T04:50:13.559Z,42.98
2023-05-22T04:51:13.554Z,42.97
2023-05-22T04:52:12.546Z,42.95
2023-05-22T04:53:12.559Z,42.96
2023-05-22T04:54:13.546Z,42.96
2023-05-22T04:55:12.561Z,42.94
2023-05-22T04:56:16.655Z,42.94
2023-05-22T04:57:13.535Z,42.95
2023-05-22T04:58:13.544Z,42.94
2023-05-22T04:59:12.524Z,42.93
2023-05-22T05:00:13.527Z,42.93
2023-05-22T05:01:12.558Z,42.92
2023-05-22T05:02:13.499Z,42.92
2023-05-22T05:03:13.555Z,42.96
2023-05-22T05:04:12.517Z,42.94
2023-05-22T05:05:13.479Z,42.93
2023-05-22T05:06:13.453Z,42.93
2023-05-22T05:07:13.450Z,42.93
2023-05-22T05:08:12.450Z,42.91
2023-05-22T05:09:13.430Z,42.90
2023-05-22T05:10:12.435Z,42.95
2023-05-22T05:11:13.433Z,42.92
2023-05-22T05:12:12.439Z,42.89
2023-05-22T05:13:13.395Z,42.92
2023-05-22T05:14:12.406Z,42.91
2023-05-22T05:15:12.389Z,42.91
2023-05-22T05:16:13.405Z,42.93
2023-05-22T05:17:12.403Z,42.90
2023-05-22T05:18:12.462Z,42.90
2023-05-22T05:19:13.369Z,42.93
2023-05-22T05:20:13.345Z,42.88
2023-05-22T05:21:13.346Z,42.93
2023-05-22T05:22:13.329Z,42.93
2023-05-22T05:23:12.311Z,42.89
2023-05-22T05:24:13.305Z,42.92
2023-05-22T05:25:13.338Z,42.89
2023-05-22T05:26:12.296Z,42.91
2023-05-22T05:27:13.303Z,42.93
2023-05-22T05:28:13.323Z,42.92
2023-05-22T05:29:12.286Z,42.91
2023-05-22T05:30:13.302Z,42.90
2023-05-22T05:31:13.271Z,42.90
2023-05-22T05:32:12.372Z,42.89
2023-05-22T05:33:13.330Z,42.91
2023-05-22T05:34:13.257Z,42.91
2023-05-22T05:35:12.247Z,42.91
2023-05-22T05:36:13.244Z,42.91
2023-05-22T05:37:12.215Z,42.91
2023-05-22T05:38:12.213Z,42.90
2023-05-22T05:39:13.210Z,42.90
2023-05-22T05:40:13.210Z,42.90
2023-05-22T05:41:13.202Z,42.90
2023-05-22T05:42:13.186Z,42.91
2023-05-22T05:43:13.162Z,42.89
2023-05-22T05:44:13.187Z,42.89
2023-05-22T05:48:13.122Z,42.90
2023-05-22T05:49:13.122Z,42.89
2023-05-22T05:50:13.109Z,42.93
2023-05-22T05:51:12.112Z,42.91
2023-05-22T05:52:12.108Z,42.91
2023-05-22T05:53:13.094Z,42.94
2023-05-22T05:54:13.080Z,42.92
2023-05-22T05:55:13.076Z,42.91
2023-05-22T05:56:12.057Z,42.92
2023-05-22T05:57:13.050Z,42.94
2023-05-22T05:58:12.074Z,42.94
2023-05-22T05:59:12.030Z,42.96
2023-05-22T06:00:13.232Z,42.96
2023-05-22T06:01:13.044Z,42.97
2023-05-22T06:02:13.100Z,42.97
2023-05-22T06:03:12.098Z,43.00
2023-05-22T06:04:13.016Z,43.12
2023-05-22T06:05:13.016Z,43.22
2023-05-22T06:06:12.994Z,43.30
2023-05-22T06:07:11.980Z,43.28
2023-05-22T06:08:12.998Z,43.27
2023-05-22T06:09:12.009Z,43.32
2023-05-22T06:10:12.958Z,43.30
2023-05-22T06:11:11.953Z,43.33
2023-05-22T06:12:13.021Z,43.34
2023-05-22T06:13:12.920Z,43.32
2023-05-22T06:14:12.955Z,43.32
2023-05-22T06:15:11.922Z,43.31
2023-05-22T06:16:13.116Z,43.32
2023-05-22T06:17:12.904Z,43.31
2023-05-22T06:18:12.936Z,43.31
2023-05-22T06:19:11.935Z,43.35
2023-05-22T06:20:12.860Z,43.38
2023-05-22T06:21:12.894Z,43.44
2023-05-22T06:22:12.859Z,43.44
2023-05-22T06:23:12.851Z,43.49
2023-05-22T06:24:12.831Z,43.56
2023-05-22T06:25:12.812Z,43.57
2023-05-22T06:26:11.823Z,43.51
2023-05-22T06:27:12.814Z,43.59
2023-05-22T06:28:12.811Z,43.63
2023-05-22T06:29:12.799Z,43.66
2023-05-22T06:30:11.805Z,43.70
2023-05-22T06:31:11.798Z,43.73
2023-05-22T06:32:12.917Z,43.72
2023-05-22T06:33:13.031Z,43.73
2023-05-22T06:34:12.929Z,43.76
2023-05-22T06:35:12.954Z,43.80
2023-05-22T06:36:12.966Z,44.09
2023-05-22T06:37:11.971Z,43.91
2023-05-22T06:38:13.032Z,44.01
2023-05-22T06:39:13.003Z,44.13
2023-05-22T06:40:11.969Z,44.01
2023-05-22T06:41:13.017Z,44.00
2023-05-22T06:42:13.063Z,44.01
2023-05-22T06:43:13.106Z,44.13
2023-05-22T06:44:13.129Z,44.16
2023-05-22T06:45:13.124Z,44.15
2023-05-22T06:46:13.181Z,44.26
2023-05-22T06:47:13.149Z,44.37
2023-05-22T06:48:12.265Z,44.20
2023-05-22T06:49:13.187Z,44.23
2023-05-22T06:50:13.189Z,44.21
2023-05-22T06:51:12.254Z,44.20
2023-05-22T06:52:12.310Z,44.31
2023-05-22T06:53:13.359Z,44.53
2023-05-22T06:54:13.404Z,44.48
2023-05-22T06:55:13.435Z,44.56
2023-05-22T06:56:12.504Z,44.53
2023-05-22T06:57:13.619Z,44.58
2023-05-22T06:58:12.611Z,45.12
2023-05-22T06:59:13.651Z,44.75
2023-05-22T07:00:13.679Z,44.76
2023-05-22T07:01:12.818Z,44.74
2023-05-22T07:02:12.811Z,44.89
2023-05-22T07:03:14.001Z,44.78
2023-05-22T07:04:13.082Z,44.78
2023-05-22T07:05:13.954Z,44.86
2023-05-22T07:06:13.047Z,45.11
2023-05-22T07:07:12.993Z,45.37
2023-05-22T07:08:13.067Z,45.20
2023-05-22T07:09:14.114Z,45.19
2023-05-22T07:10:14.154Z,45.34
2023-05-22T07:11:13.201Z,45.33
2023-05-22T07:12:14.238Z,45.35
2023-05-22T07:13:14.307Z,45.40
2023-05-22T07:14:13.352Z,45.40
2023-05-22T07:15:14.444Z,45.40
2023-05-22T07:16:13.481Z,45.47
2023-05-22T07:17:14.516Z,45.45
2023-05-22T07:18:14.743Z,45.60
2023-05-22T07:19:13.610Z,45.63
2023-05-22T07:20:14.680Z,45.79
2023-05-22T07:21:14.696Z,45.91
2023-05-22T07:22:14.767Z,45.77
2023-05-22T07:23:14.836Z,45.77
2023-05-22T07:24:13.879Z,46.00
2023-05-22T07:25:14.957Z,46.10
2023-05-22T07:26:14.981Z,46.09
2023-05-22T07:27:15.083Z,46.23
2023-05-22T07:28:15.087Z,46.16
2023-05-22T07:29:15.153Z,46.13
2023-05-22T07:30:15.219Z,46.22
2023-05-22T07:31:15.293Z,46.22
2023-05-22T07:32:15.429Z,46.20
2023-05-22T07:33:15.367Z,46.22
2023-05-22T07:34:14.405Z,46.33
2023-05-22T07:35:14.458Z,46.44
2023-05-22T07:36:15.545Z,46.45
2023-05-22T07:37:15.616Z,46.57
2023-05-22T07:38:14.626Z,46.45
2023-05-22T07:39:15.698Z,46.46
2023-05-22T07:40:14.732Z,46.72
2023-05-22T07:41:14.787Z,46.60
2023-05-22T07:42:15.868Z,46.63
2023-05-22T07:43:15.908Z,46.88
2023-05-22T07:44:15.947Z,46.76
2023-05-22T07:45:16.026Z,46.90
2023-05-22T07:46:15.076Z,46.82
2023-05-22T07:47:15.116Z,46.83
2023-05-22T07:48:16.247Z,46.90
2023-05-22T07:49:15.234Z,46.91
2023-05-22T07:50:16.287Z,46.84
2023-05-22T07:51:16.349Z,46.82
2023-05-22T07:52:16.967Z,46.83
2023-05-22T07:53:15.452Z,46.87
2023-05-22T07:54:16.503Z,46.78
2023-05-22T07:55:16.558Z,46.85
2023-05-22T07:56:16.618Z,46.88
2023-05-22T07:57:16.689Z,46.90
2023-05-22T07:58:16.745Z,46.82
2023-05-22T07:59:16.785Z,46.83
2023-05-22T08:00:16.856Z,46.76
2023-05-22T08:01:16.906Z,46.76
2023-05-22T08:02:15.971Z,46.78
2023-05-22T08:03:17.410Z,46.75
2023-05-22T08:04:16.280Z,46.77
2023-05-22T08:05:16.276Z,46.80
2023-05-22T08:06:17.178Z,46.81
2023-05-22T08:07:16.243Z,46.81
2023-05-22T08:08:17.528Z,46.87
2023-05-22T08:09:16.366Z,46.80
2023-05-22T08:10:17.428Z,46.78
2023-05-22T08:11:17.469Z,46.76
2023-05-22T08:12:17.541Z,46.86
2023-05-22T08:13:16.591Z,46.75
2023-05-22T08:14:17.662Z,46.80
2023-05-22T08:15:16.729Z,46.83
2023-05-22T08:16:17.777Z,46.82
2023-05-22T08:17:17.953Z,46.85
2023-05-22T08:18:17.910Z,46.83
2023-05-22T08:19:18.049Z,46.82
2023-05-22T08:20:18.068Z,46.79
2023-05-22T08:21:18.080Z,46.79
2023-05-22T08:22:17.151Z,46.81
2023-05-22T08:23:17.191Z,46.90
2023-05-22T08:24:18.476Z,46.81
2023-05-22T08:25:18.309Z,46.88
2023-05-22T08:26:18.385Z,46.89
2023-05-22T08:27:17.424Z,46.98
2023-05-22T08:28:17.513Z,46.99
2023-05-22T08:29:18.543Z,47.00
2023-05-22T08:30:18.599Z,47.10
2023-05-22T08:31:18.745Z,47.08
2023-05-22T08:32:18.856Z,47.13
2023-05-22T08:33:17.835Z,47.21
2023-05-22T08:34:18.865Z,47.16
2023-05-22T08:35:17.909Z,47.29
2023-05-22T08:36:18.964Z,47.28
2023-05-22T08:37:18.033Z,47.31
2023-05-22T08:38:19.089Z,47.27
2023-05-22T08:39:19.448Z,47.27
2023-05-22T08:40:18.447Z,47.32
2023-05-22T08:41:19.262Z,47.38
2023-05-22T08:42:19.656Z,47.46
2023-05-22T08:43:19.356Z,47.46
2023-05-22T08:44:19.424Z,47.53
2023-05-22T08:45:18.482Z,47.64
2023-05-22T08:46:19.586Z,47.67
2023-05-22T08:47:19.612Z,47.81
2023-05-22T08:48:18.612Z,47.95
2023-05-22T08:49:20.412Z,47.92
2023-05-22T08:50:19.648Z,48.04
2023-05-22T08:51:18.647Z,48.10
2023-05-22T08:52:19.631Z,48.10
2023-05-22T08:53:19.637Z,48.18
2023-05-22T08:54:18.613Z,48.14
2023-05-22T08:55:19.638Z,48.32
2023-05-22T08:56:19.647Z,48.20
2023-05-22T08:57:19.647Z,48.17
2023-05-22T08:58:18.608Z,48.17
2023-05-22T08:59:19.595Z,48.18
2023-05-22T09:00:19.598Z,48.16
2023-05-22T09:01:19.602Z,48.19
2023-05-22T09:02:18.574Z,48.09
2023-05-22T09:03:19.749Z,48.22
2023-05-22T09:04:19.563Z,48.22
2023-05-22T09:05:18.548Z,48.27
2023-05-22T09:06:19.525Z,48.14
2023-05-22T09:07:18.529Z,48.15
2023-05-22T09:08:21.030Z,48.15
2023-05-22T09:09:19.525Z,48.30
2023-05-22T09:10:18.510Z,48.39
2023-05-22T09:11:19.519Z,48.31
2023-05-22T09:12:18.677Z,48.28
2023-05-22T09:13:19.479Z,48.33
2023-05-22T09:14:18.475Z,48.35
2023-05-22T09:15:18.462Z,48.35
2023-05-22T09:16:19.477Z,48.44
2023-05-22T09:17:19.455Z,48.41
2023-05-22T09:18:19.443Z,48.43
2023-05-22T09:19:19.534Z,48.47
2023-05-22T09:20:19.428Z,48.53
2023-05-22T09:21:29.541Z,48.50
2023-05-22T09:22:20.127Z,48.56
2023-05-22T09:23:19.396Z,48.53
2023-05-22T09:24:19.400Z,48.56
2023-05-22T09:25:19.376Z,48.59
2023-05-22T09:26:19.377Z,48.61
2023-05-22T09:27:19.367Z,48.68
2023-05-22T09:28:19.393Z,48.62
2023-05-22T09:29:19.358Z,48.68
2023-05-22T09:30:18.359Z,48.61
2023-05-22T09:31:18.340Z,48.63
2023-05-22T09:32:19.339Z,48.61
2023-05-22T09:33:19.326Z,48.61
2023-05-22T09:34:19.309Z,48.55
2023-05-22T09:35:19.329Z,48.68
2023-05-22T09:36:19.292Z,48.68
2023-05-22T09:37:19.302Z,48.73
2023-05-22T09:38:19.291Z,48.72
2023-05-22T09:39:19.293Z,48.67
2023-05-22T09:40:19.284Z,48.63
2023-05-22T09:41:19.284Z,48.61
2023-05-22T09:42:19.260Z,48.55
2023-05-22T09:43:19.243Z,48.57
2023-05-22T09:44:18.279Z,48.57
2023-05-22T09:45:18.239Z,48.59
2023-05-22T09:46:19.253Z,48.56
2023-05-22T09:47:19.698Z,48.53
2023-05-22T09:48:19.229Z,48.51
2023-05-22T09:49:18.218Z,48.49
2023-05-22T09:50:19.195Z,48.53
2023-05-22T09:51:18.191Z,48.53
2023-05-22T09:52:19.683Z,48.56
2023-05-22T09:53:19.245Z,48.58
2023-05-22T09:54:19.280Z,48.60
2023-05-22T09:55:18.319Z,48.56
2023-05-22T09:56:27.523Z,48.51
2023-05-22T09:57:19.379Z,48.48
2023-05-22T09:58:19.347Z,48.50
2023-05-22T09:59:18.347Z,48.53
2023-05-22T10:00:19.631Z,48.61
2023-05-22T10:01:19.364Z,48.56
2023-05-22T10:02:19.337Z,48.50
2023-05-22T10:03:19.334Z,48.52
2023-05-22T10:04:18.362Z,48.44
2023-05-22T10:05:18.293Z,48.44
2023-05-22T10:06:19.306Z,48.36
2023-05-22T10:07:18.292Z,48.40
2023-05-22T10:08:18.275Z,48.38
2023-05-22T10:09:19.822Z,48.39
2023-05-22T10:10:18.276Z,48.43
2023-05-22T10:11:19.254Z,48.38
2023-05-22T10:12:19.256Z,48.39
2023-05-22T10:13:19.241Z,48.41
2023-05-22T10:14:19.237Z,48.36
2023-05-22T10:15:19.230Z,48.33
2023-05-22T10:16:18.451Z,48.29
2023-05-22T10:17:19.211Z,48.27
2023-05-22T10:18:19.205Z,48.28
2023-05-22T10:19:19.240Z,48.32
2023-05-22T10:20:19.196Z,48.24
2023-05-22T10:21:18.172Z,48.22
2023-05-22T10:22:19.166Z,48.19
2023-05-22T10:23:19.267Z,48.18
2023-05-22T10:24:19.143Z,48.18
2023-05-22T10:25:18.199Z,48.17
2023-05-22T10:26:19.231Z,48.12
2023-05-22T10:27:19.304Z,48.13
2023-05-22T10:28:18.322Z,48.11
2023-05-22T10:29:19.363Z,48.07
2023-05-22T10:30:18.404Z,48.06
2023-05-22T10:31:19.442Z,48.00
2023-05-22T10:32:18.665Z,48.02
2023-05-22T10:33:18.606Z,47.98
2023-05-22T10:34:19.565Z,47.98
2023-05-22T10:35:19.591Z,47.97
2023-05-22T10:36:19.669Z,47.95
2023-05-22T10:37:21.214Z,47.91
2023-05-22T10:38:19.686Z,47.92
2023-05-22T10:39:19.663Z,47.89
2023-05-22T10:40:19.667Z,47.84
2023-05-22T10:41:19.639Z,47.83
2023-05-22T10:42:18.660Z,47.79
2023-05-22T10:43:18.705Z,47.81
2023-05-22T10:44:19.619Z,47.80
2023-05-22T10:45:18.629Z,47.78
2023-05-22T10:46:18.616Z,47.78
2023-05-22T10:47:19.732Z,47.78
2023-05-22T10:48:18.714Z,47.75
2023-05-22T10:49:19.587Z,47.72
2023-05-22T10:50:19.673Z,47.69
2023-05-22T10:51:19.572Z,47.69
2023-05-22T10:52:18.594Z,47.67
2023-05-22T10:53:19.566Z,47.61
2023-05-22T10:54:18.570Z,47.63
2023-05-22T10:55:19.549Z,47.62
2023-05-22T10:56:18.544Z,47.63
2023-05-22T10:57:19.514Z,47.61
2023-05-22T10:58:19.528Z,47.59
2023-05-22T10:59:19.513Z,47.57
2023-05-22T11:00:19.505Z,47.56
2023-05-22T11:01:19.548Z,47.54
2023-05-22T11:02:19.547Z,47.54
2023-05-22T11:03:19.530Z,47.50
2023-05-22T11:04:19.654Z,47.47
2023-05-22T11:05:18.477Z,47.48
2023-05-22T11:06:19.456Z,47.45
2023-05-22T11:07:19.460Z,47.41
2023-05-22T11:08:19.587Z,47.40
2023-05-22T11:09:18.438Z,47.40
2023-05-22T11:10:19.427Z,47.39
2023-05-22T11:11:18.433Z,47.35
2023-05-22T11:12:19.580Z,47.32
2023-05-22T11:13:18.484Z,47.25
2023-05-22T11:14:18.506Z,47.25
2023-05-22T11:15:19.543Z,47.22
2023-05-22T11:16:19.636Z,47.21
2023-05-22T11:17:19.605Z,47.22
2023-05-22T11:18:18.702Z,47.22
2023-05-22T11:19:23.710Z,47.24
2023-05-22T11:20:19.791Z,47.22
2023-05-22T11:21:19.704Z,47.21
2023-05-22T11:22:18.712Z,47.15
2023-05-22T11:23:18.736Z,47.16
2023-05-22T11:24:19.748Z,47.10
2023-05-22T11:25:19.797Z,47.08
2023-05-22T11:26:19.827Z,47.12
2023-05-22T11:27:18.879Z,47.05
2023-05-22T11:28:18.876Z,47.02
2023-05-22T11:29:18.910Z,47.01
2023-05-22T11:30:18.927Z,46.97
2023-05-22T11:31:20.042Z,46.96
2023-05-22T11:32:19.027Z,46.97
2023-05-22T11:33:20.149Z,46.92
2023-05-22T11:34:20.065Z,46.94
2023-05-22T11:35:20.125Z,46.86
2023-05-22T11:36:20.273Z,46.85
2023-05-22T11:37:19.167Z,46.89
2023-05-22T11:38:20.231Z,46.84
2023-05-22T11:39:21.861Z,46.82
2023-05-22T11:40:20.799Z,46.80
2023-05-22T11:41:20.421Z,46.73
2023-05-22T11:42:20.458Z,46.73
2023-05-22T11:43:19.482Z,46.75
2023-05-22T11:44:20.510Z,46.70
2023-05-22T11:45:19.544Z,46.65
2023-05-22T11:46:20.626Z,46.71
2023-05-22T11:47:20.583Z,46.66
2023-05-22T11:48:20.614Z,46.70
2023-05-22T11:49:20.642Z,46.64
2023-05-22T11:50:43.595Z,46.59
2023-05-22T11:51:20.680Z,46.60
2023-05-22T11:52:20.813Z,46.58
2023-05-22T11:53:19.668Z,46.54
2023-05-22T11:54:20.638Z,46.59
2023-05-22T11:55:19.639Z,46.57
2023-05-22T11:56:19.639Z,46.54
2023-05-22T11:57:20.633Z,46.53
2023-05-22T11:58:20.624Z,46.47
2023-05-22T11:59:20.625Z,46.44
2023-05-22T12:00:19.686Z,46.47
2023-05-22T12:01:20.580Z,46.49
2023-05-22T12:02:19.583Z,46.42
2023-05-22T12:03:19.681Z,46.46
2023-05-22T12:04:19.651Z,46.45
2023-05-22T12:05:20.556Z,46.39
2023-05-22T12:06:20.584Z,46.37
2023-05-22T12:07:20.543Z,46.33
2023-05-22T12:08:20.649Z,46.32
2023-05-22T12:09:19.517Z,46.34
2023-05-22T12:10:19.506Z,46.25
2023-05-22T12:11:20.529Z,46.29
2023-05-22T12:12:21.057Z,46.23
2023-05-22T12:13:20.533Z,46.24
2023-05-22T12:14:19.527Z,46.27
2023-05-22T12:15:20.518Z,46.12
2023-05-22T12:16:19.608Z,46.12
2023-05-22T12:17:20.516Z,46.10
2023-05-22T12:18:20.484Z,46.05
2023-05-22T12:19:20.509Z,46.07
2023-05-22T12:20:20.482Z,46.01
2023-05-22T12:21:20.470Z,45.99
2023-05-22T12:22:20.329Z,45.94
2023-05-22T12:23:20.461Z,45.97
2023-05-22T12:24:19.597Z,45.94
2023-05-22T12:25:20.705Z,45.94
2023-05-22T12:26:19.469Z,45.91
2023-05-22T12:27:20.558Z,45.87
2023-05-22T12:28:19.536Z,45.75
2023-05-22T12:29:20.548Z,45.74
2023-05-22T12:30:20.585Z,45.71
2023-05-22T12:31:19.604Z,45.71
2023-05-22T12:32:19.692Z,45.19
2023-05-22T12:33:20.684Z,45.40
2023-05-22T12:34:20.727Z,45.32
2023-05-22T12:35:20.748Z,45.34
2023-05-22T12:36:19.770Z,45.26
2023-05-22T12:37:20.776Z,45.36
2023-05-22T12:38:20.799Z,45.53
2023-05-22T12:39:19.781Z,45.84
2023-05-22T12:40:19.934Z,45.87
2023-05-22T12:41:20.807Z,45.96
2023-05-22T12:42:20.797Z,45.91
2023-05-22T12:43:20.815Z,45.87
2023-05-22T12:44:20.798Z,45.94
2023-05-22T12:45:19.818Z,46.04
2023-05-22T12:46:20.818Z,46.06
2023-05-22T12:47:19.830Z,45.98
2023-05-22T12:48:20.856Z,46.29
2023-05-22T12:49:20.876Z,46.36
2023-05-22T12:50:20.899Z,46.37
2023-05-22T12:51:20.907Z,46.59
2023-05-22T12:52:20.949Z,46.60
2023-05-22T12:53:20.938Z,46.81
2023-05-22T12:54:20.921Z,46.67
2023-05-22T12:55:20.913Z,46.62